Time,TemperatureF,DewpointF,PressureIn,WindDirection,WindDirectionDegrees,WindSpeedMPH,WindSpeedGustMPH,Humidity,HourlyPrecipIn,Conditions,Clouds,dailyrainin,SoftwareType,DateUTC
2013-07-29 00:01:00,61.0,55.5,29.98,SW,217,0.0,0.0,82,0.00,,,0.00,VWS V14.01,2013-07-29 04:01:00,
2013-07-29 00:04:00,61.0,55.1,29.98,SW,217,0.0,0.0,81,0.00,,,0.00,VWS V14.01,2013-07-29 04:04:00,
2013-07-29 00:06:00,61.1,55.2,29.99,SW,217,0.0,0.0,81,0.00,,,0.00,VWS V14.01,2013-07-29 04:06:00,
2013-07-29 00:08:00,61.1,54.9,29.98,SW,217,0.0,0.0,80,0.00,,,0.00,VWS V14.01,2013-07-29 04:08:00,
2013-07-29 00:09:00,61.1,54.9,29.98,SW,217,0.0,0.0,80,0.00,,,0.00,VWS V14.01,2013-07-29 04:09:00,
2013-07-29 00:14:00,61.2,56.0,29.98,SW,217,0.0,0.0,83,0.00,,,0.00,VWS V14.01,2013-07-29 04:14:00,
2013-07-29 00:19:00,61.2,56.3,29.98,SW,217,0.0,0.0,84,0.00,,,0.00,VWS V14.01,2013-07-29 04:19:00,
2013-07-29 00:24:00,61.2,56.0,29.98,SW,217,0.0,0.0,83,0.00,,,0.00,VWS V14.01,2013-07-29 04:24:00,
2013-07-29 00:29:00,61.0,55.1,29.98,SW,217,0.0,0.0,81,0.00,,,0.00,VWS V14.01,2013-07-29 04:29:00,
2013-07-29 00:35:00,61.0,55.5,29.98,SW,217,0.0,0.0,82,0.00,,,0.00,VWS V14.01,2013-07-29 04:35:00,
2013-07-29 00:40:00,60.9,56.0,29.98,SW,217,0.0,0.0,84,0.00,,,0.00,VWS V14.01,2013-07-29 04:40:00,
2013-07-29 00:45:00,60.8,55.9,29.98,SW,217,0.0,0.0,84,0.00,,,0.00,VWS V14.01,2013-07-29 04:45:00,
2013-07-29 00:50:00,60.6,55.4,29.99,SW,217,0.0,0.0,83,0.00,,,0.00,VWS V14.01,2013-07-29 04:50:00,
2013-07-29 00:55:00,60.5,55.0,29.99,SW,217,0.0,0.0,82,0.00,,,0.00,VWS V14.01,2013-07-29 04:55:00,
2013-07-29 01:00:00,60.4,55.2,29.99,SW,217,0.0,0.0,83,0.00,,,0.00,VWS V14.01,2013-07-29 05:00:00,
2013-07-29 01:05:00,60.4,55.2,29.99,SW,217,0.0,0.0,83,0.00,,,0.00,VWS V14.01,2013-07-29 05:05:00,
2013-07-29 01:10:00,60.3,55.1,29.99,SW,217,0.0,0.0,83,0.00,,,0.00,VWS V14.01,2013-07-29 05:10:00,
2013-07-29 01:15:00,60.3,55.5,29.99,SW,217,0.0,0.0,84,0.00,,,0.00,VWS V14.01,2013-07-29 05:15:00,
2013-07-29 01:20:00,60.3,55.8,29.99,SW,217,0.0,0.0,85,0.00,,,0.00,VWS V14.01,2013-07-29 05:20:00,
2013-07-29 01:25:00,60.2,55.7,29.99,SW,217,0.0,0.0,85,0.00,,,0.00,VWS V14.01,2013-07-29 05:25:00,
2013-07-29 01:30:00,60.0,55.5,29.99,SW,217,0.0,0.0,85,0.00,,,0.00,VWS V14.01,2013-07-29 05:30:00,
2013-07-29 01:35:00,60.0,55.2,29.99,SW,217,0.0,0.0,84,0.00,,,0.00,VWS V14.01,2013-07-29 05:35:00,
2013-07-29 01:40:00,60.0,55.2,29.99,SW,217,0.0,0.0,84,0.00,,,0.00,VWS V14.01,2013-07-29 05:40:00,
2013-07-29 01:45:00,60.0,55.5,29.99,SW,217,0.0,0.0,85,0.00,,,0.00,VWS V14.01,2013-07-29 05:45:00,
2013-07-29 01:50:00,60.1,55.3,29.99,SW,217,0.0,0.0,84,0.00,,,0.00,VWS V14.01,2013-07-29 05:50:00,
2013-07-29 01:55:00,60.2,55.7,29.99,SW,217,0.0,0.0,85,0.00,,,0.00,VWS V14.01,2013-07-29 05:55:00,
2013-07-29 02:01:00,60.3,55.8,29.99,SW,217,0.0,0.0,85,0.00,,,0.00,VWS V14.01,2013-07-29 06:01:00,
2013-07-29 02:06:00,60.4,56.2,29.99,SW,217,0.0,0.0,86,0.00,,,0.00,VWS V14.01,2013-07-29 06:06:00,
2013-07-29 02:11:00,60.3,56.1,29.99,SW,217,0.0,0.0,86,0.00,,,0.00,VWS V14.01,2013-07-29 06:11:00,
2013-07-29 02:16:00,60.4,56.2,29.99,SW,217,0.0,0.0,86,0.00,,,0.00,VWS V14.01,2013-07-29 06:16:00,
2013-07-29 02:21:00,60.4,56.2,29.99,SW,217,0.0,0.0,86,0.00,,,0.00,VWS V14.01,2013-07-29 06:21:00,
2013-07-29 02:26:00,60.5,56.3,29.99,SW,217,0.0,0.0,86,0.00,,,0.00,VWS V14.01,2013-07-29 06:26:00,
2013-07-29 02:31:00,60.4,55.9,29.99,SW,217,0.0,0.0,85,0.00,,,0.00,VWS V14.01,2013-07-29 06:31:00,
2013-07-29 02:36:00,60.3,56.1,29.99,SW,217,0.0,0.0,86,0.00,,,0.00,VWS V14.01,2013-07-29 06:36:00,
2013-07-29 02:41:00,60.1,56.2,29.99,SW,217,0.0,0.0,87,0.00,,,0.00,VWS V14.01,2013-07-29 06:41:00,
2013-07-29 02:46:00,59.9,56.0,29.99,SW,217,0.0,0.0,87,0.00,,,0.00,VWS V14.01,2013-07-29 06:46:00,
2013-07-29 02:52:00,59.8,55.9,29.99,SW,217,0.0,0.0,87,0.00,,,0.00,VWS V14.01,2013-07-29 06:52:00,
2013-07-29 02:56:00,59.6,56.0,29.99,SW,217,0.0,0.0,88,0.00,,,0.00,VWS V14.01,2013-07-29 06:56:00,
2013-07-29 03:01:00,59.5,56.0,29.99,SW,217,0.0,0.0,88,0.00,,,0.00,VWS V14.01,2013-07-29 07:01:00,
2013-07-29 03:06:00,59.3,55.8,29.99,SW,217,0.0,0.0,88,0.00,,,0.00,VWS V14.01,2013-07-29 07:06:00,
2013-07-29 03:11:00,59.3,55.8,29.99,SW,217,0.0,1.0,88,0.00,,,0.00,VWS V14.01,2013-07-29 07:11:00,
2013-07-29 03:16:00,59.3,55.8,29.99,SW,217,0.0,0.0,88,0.00,,,0.00,VWS V14.01,2013-07-29 07:16:00,
2013-07-29 03:22:00,59.1,55.5,29.99,SW,217,0.0,0.0,88,0.00,,,0.00,VWS V14.01,2013-07-29 07:22:00,
2013-07-29 03:27:00,59.1,55.5,29.99,SW,217,0.0,1.0,88,0.00,,,0.00,VWS V14.01,2013-07-29 07:27:00,
2013-07-29 03:32:00,59.0,55.5,30.00,SW,217,0.0,0.0,88,0.00,,,0.00,VWS V14.01,2013-07-29 07:32:00,
2013-07-29 03:37:00,59.0,55.5,29.99,SW,217,0.0,0.0,88,0.00,,,0.00,VWS V14.01,2013-07-29 07:37:00,
2013-07-29 03:42:00,59.0,55.5,29.99,SW,217,0.0,0.0,88,0.00,,,0.00,VWS V14.01,2013-07-29 07:42:00,
2013-07-29 03:47:00,59.0,55.8,29.99,SW,217,0.0,0.0,89,0.00,,,0.00,VWS V14.01,2013-07-29 07:47:00,
2013-07-29 03:52:00,59.0,55.8,30.00,SW,217,0.0,0.0,89,0.00,,,0.00,VWS V14.01,2013-07-29 07:52:00,
2013-07-29 03:57:00,59.0,55.8,29.99,SW,217,0.0,0.0,89,0.00,,,0.00,VWS V14.01,2013-07-29 07:57:00,
2013-07-29 04:02:00,59.0,55.8,29.99,SW,217,0.0,0.0,89,0.00,,,0.00,VWS V14.01,2013-07-29 08:02:00,
2013-07-29 04:07:00,59.0,55.8,29.99,SW,217,0.0,0.0,89,0.00,,,0.00,VWS V14.01,2013-07-29 08:07:00,
2013-07-29 04:12:00,59.0,56.1,29.99,SW,217,0.0,0.0,90,0.00,,,0.00,VWS V14.01,2013-07-29 08:12:00,
2013-07-29 04:17:00,58.8,55.9,29.99,SW,217,0.0,0.0,90,0.00,,,0.00,VWS V14.01,2013-07-29 08:17:00,
2013-07-29 04:22:00,58.7,55.8,30.00,SW,217,0.0,1.0,90,0.00,,,0.00,VWS V14.01,2013-07-29 08:22:00,
2013-07-29 04:27:00,58.8,55.6,29.99,SW,217,0.0,0.0,89,0.00,,,0.00,VWS V14.01,2013-07-29 08:27:00,
2013-07-29 04:33:00,58.7,55.5,30.00,SW,217,0.0,0.0,89,0.00,,,0.00,VWS V14.01,2013-07-29 08:33:00,
2013-07-29 04:38:00,58.7,55.5,30.00,SW,217,0.0,0.0,89,0.00,,,0.00,VWS V14.01,2013-07-29 08:38:00,
2013-07-29 04:43:00,58.5,55.6,30.00,SW,217,0.0,0.0,90,0.00,,,0.00,VWS V14.01,2013-07-29 08:43:00,
2013-07-29 04:48:00,58.4,55.5,30.00,SW,217,0.0,0.0,90,0.00,,,0.00,VWS V14.01,2013-07-29 08:48:00,
2013-07-29 04:53:00,58.3,55.4,30.00,SW,217,0.0,0.0,90,0.00,,,0.00,VWS V14.01,2013-07-29 08:53:00,
2013-07-29 04:58:00,58.2,55.3,30.00,SW,217,0.0,0.0,90,0.00,,,0.00,VWS V14.01,2013-07-29 08:58:00,
2013-07-29 05:03:00,58.1,55.5,30.00,SW,217,0.0,0.0,91,0.00,,,0.00,VWS V14.01,2013-07-29 09:03:00,
2013-07-29 05:08:00,58.0,55.4,30.00,SW,217,0.0,0.0,91,0.00,,,0.00,VWS V14.01,2013-07-29 09:08:00,
2013-07-29 05:13:00,57.9,55.3,30.00,SW,217,0.0,0.0,91,0.00,,,0.00,VWS V14.01,2013-07-29 09:13:00,
2013-07-29 05:18:00,57.8,55.2,30.00,SW,217,0.0,0.0,91,0.00,,,0.00,VWS V14.01,2013-07-29 09:18:00,
2013-07-29 05:23:00,57.8,55.2,30.00,SW,217,0.0,0.0,91,0.00,,,0.00,VWS V14.01,2013-07-29 09:23:00,
2013-07-29 05:28:00,57.7,55.1,30.00,SW,217,0.0,0.0,91,0.00,,,0.00,VWS V14.01,2013-07-29 09:28:00,
2013-07-29 05:33:00,57.7,55.1,30.00,SW,217,0.0,0.0,91,0.00,,,0.00,VWS V14.01,2013-07-29 09:33:00,
2013-07-29 05:39:00,57.6,55.0,30.00,SW,217,0.0,0.0,91,0.00,,,0.00,VWS V14.01,2013-07-29 09:39:00,
2013-07-29 05:44:00,57.6,55.0,30.00,SW,217,0.0,0.0,91,0.00,,,0.00,VWS V14.01,2013-07-29 09:44:00,
2013-07-29 05:49:00,57.7,55.1,30.01,SW,217,0.0,0.0,91,0.00,,,0.00,VWS V14.01,2013-07-29 09:49:00,
2013-07-29 05:54:00,57.6,55.0,30.00,SW,217,0.0,0.0,91,0.00,,,0.00,VWS V14.01,2013-07-29 09:54:00,
2013-07-29 05:59:00,57.6,54.7,30.01,SW,217,0.0,0.0,90,0.00,,,0.00,VWS V14.01,2013-07-29 09:59:00,
2013-07-29 06:04:00,57.5,54.6,30.01,SW,217,0.0,0.0,90,0.00,,,0.00,VWS V14.01,2013-07-29 10:04:00,
2013-07-29 06:09:00,57.5,54.9,30.01,SW,217,0.0,0.0,91,0.00,,,0.00,VWS V14.01,2013-07-29 10:09:00,
2013-07-29 06:14:00,57.7,55.1,30.01,SW,217,0.0,0.0,91,0.00,,,0.00,VWS V14.01,2013-07-29 10:14:00,
2013-07-29 06:19:00,57.9,55.0,30.01,SW,217,0.0,0.0,90,0.00,,,0.00,VWS V14.01,2013-07-29 10:19:00,
2013-07-29 06:24:00,57.9,55.0,30.01,SW,217,0.0,0.0,90,0.00,,,0.00,VWS V14.01,2013-07-29 10:24:00,
2013-07-29 06:29:00,57.8,54.9,30.01,SW,217,0.0,0.0,90,0.00,,,0.00,VWS V14.01,2013-07-29 10:29:00,
2013-07-29 06:35:00,57.7,54.8,30.02,SW,217,0.0,0.0,90,0.00,,,0.00,VWS V14.01,2013-07-29 10:35:00,
2013-07-29 06:40:00,57.5,54.6,30.02,SW,217,0.0,0.0,90,0.00,,,0.00,VWS V14.01,2013-07-29 10:40:00,
2013-07-29 06:45:00,57.3,54.4,30.02,SW,217,0.0,0.0,90,0.00,,,0.00,VWS V14.01,2013-07-29 10:45:00,
2013-07-29 06:50:00,57.2,54.6,30.02,SW,217,0.0,0.0,91,0.00,,,0.00,VWS V14.01,2013-07-29 10:50:00,
2013-07-29 06:55:00,57.1,54.8,30.02,SW,217,0.0,0.0,92,0.00,,,0.00,VWS V14.01,2013-07-29 10:55:00,
2013-07-29 07:01:00,57.1,54.8,30.03,SW,217,0.0,0.0,92,0.00,,,0.00,VWS V14.01,2013-07-29 11:01:00,
2013-07-29 07:06:00,57.0,54.7,30.03,SW,217,0.0,0.0,92,0.00,,,0.00,VWS V14.01,2013-07-29 11:06:00,
2013-07-29 07:12:00,56.9,54.6,30.03,SW,217,0.0,0.0,92,0.00,,,0.00,VWS V14.01,2013-07-29 11:12:00,
2013-07-29 07:18:00,56.8,54.5,30.03,SW,217,0.0,0.0,92,0.00,,,0.00,VWS V14.01,2013-07-29 11:18:00,
2013-07-29 07:23:00,56.8,54.5,30.03,SW,217,0.0,0.0,92,0.00,,,0.00,VWS V14.01,2013-07-29 11:23:00,
2013-07-29 07:28:00,56.8,54.5,30.04,SW,217,0.0,0.0,92,0.00,,,0.00,VWS V14.01,2013-07-29 11:28:00,
2013-07-29 07:33:00,57.0,55.0,30.04,SW,217,0.0,0.0,93,0.00,,,0.00,VWS V14.01,2013-07-29 11:33:00,
2013-07-29 07:39:00,57.3,55.0,30.04,SW,217,0.0,0.0,92,0.00,,,0.00,VWS V14.01,2013-07-29 11:39:00,
2013-07-29 07:45:00,57.7,55.4,30.04,SW,217,0.0,0.0,92,0.00,,,0.00,VWS V14.01,2013-07-29 11:45:00,
2013-07-29 07:50:00,58.1,55.5,30.05,SW,217,0.0,1.0,91,0.00,,,0.00,VWS V14.01,2013-07-29 11:50:00,
2013-07-29 07:55:00,58.6,56.0,30.05,SW,217,0.0,0.0,91,0.00,,,0.00,VWS V14.01,2013-07-29 11:55:00,
2013-07-29 08:00:00,59.0,56.4,30.05,SW,217,0.0,0.0,91,0.00,,,0.00,VWS V14.01,2013-07-29 12:00:00,
2013-07-29 08:05:00,59.2,56.3,30.06,SW,217,0.0,0.0,90,0.00,,,0.00,VWS V14.01,2013-07-29 12:05:00,
2013-07-29 08:10:00,59.8,56.9,30.05,SW,217,0.0,3.0,90,0.00,,,0.00,VWS V14.01,2013-07-29 12:10:00,
2013-07-29 08:15:00,60.2,57.0,30.05,SW,217,0.0,0.0,89,0.00,,,0.00,VWS V14.01,2013-07-29 12:15:00,
2013-07-29 08:20:00,60.7,57.4,30.06,SW,217,1.0,4.0,89,0.00,,,0.00,VWS V14.01,2013-07-29 12:20:00,
2013-07-29 08:25:00,61.2,57.6,30.06,SW,217,0.0,0.0,88,0.00,,,0.00,VWS V14.01,2013-07-29 12:25:00,
2013-07-29 08:31:00,61.7,57.8,30.06,SW,217,0.0,2.0,87,0.00,,,0.00,VWS V14.01,2013-07-29 12:31:00,
2013-07-29 08:36:00,62.4,58.2,30.06,SW,217,1.0,3.0,86,0.00,,,0.00,VWS V14.01,2013-07-29 12:36:00,
2013-07-29 08:41:00,62.9,58.3,30.06,SW,217,0.0,1.0,85,0.00,,,0.00,VWS V14.01,2013-07-29 12:41:00,
2013-07-29 08:46:00,63.4,58.8,30.06,SW,217,0.0,1.0,85,0.00,,,0.00,VWS V14.01,2013-07-29 12:46:00,
2013-07-29 08:51:00,64.0,59.1,30.06,SW,217,0.0,1.0,84,0.00,,,0.00,VWS V14.01,2013-07-29 12:51:00,
2013-07-29 08:56:00,64.5,59.2,30.06,SW,217,3.0,3.0,83,0.00,,,0.00,VWS V14.01,2013-07-29 12:56:00,
2013-07-29 09:02:00,64.9,59.6,30.07,SW,218,2.0,2.0,83,0.00,,,0.00,VWS V14.01,2013-07-29 13:02:00,
2013-07-29 09:07:00,65.5,59.5,30.07,SSW,209,0.0,3.0,81,0.00,,,0.00,VWS V14.01,2013-07-29 13:07:00,
2013-07-29 09:12:00,66.0,59.7,30.07,SW,220,1.0,4.0,80,0.00,,,0.00,VWS V14.01,2013-07-29 13:12:00,
2013-07-29 09:17:00,66.5,59.8,30.07,SW,229,2.0,3.0,79,0.00,,,0.00,VWS V14.01,2013-07-29 13:17:00,
2013-07-29 09:23:00,66.8,59.4,30.07,SW,229,3.0,6.0,77,0.00,,,0.00,VWS V14.01,2013-07-29 13:23:00,
2013-07-29 09:28:00,67.2,60.1,30.07,SW,225,1.0,3.0,78,0.00,,,0.00,VWS V14.01,2013-07-29 13:28:00,
2013-07-29 09:33:00,67.4,60.3,30.06,SW,229,0.0,3.0,78,0.00,,,0.00,VWS V14.01,2013-07-29 13:33:00,
2013-07-29 09:38:00,67.8,60.0,30.07,SW,231,3.0,5.0,76,0.00,,,0.00,VWS V14.01,2013-07-29 13:38:00,
2013-07-29 09:44:00,68.1,60.3,30.07,SW,223,0.0,3.0,76,0.00,,,0.00,VWS V14.01,2013-07-29 13:44:00,
2013-07-29 09:49:00,68.6,61.1,30.06,SW,230,0.0,0.0,77,0.00,,,0.00,VWS V14.01,2013-07-29 13:49:00,
2013-07-29 09:54:00,69.0,61.1,30.07,SW,223,4.0,7.0,76,0.00,,,0.00,VWS V14.01,2013-07-29 13:54:00,
2013-07-29 09:59:00,69.3,61.4,30.06,SW,219,3.0,3.0,76,0.00,,,0.00,VWS V14.01,2013-07-29 13:59:00,
2013-07-29 10:04:00,69.5,61.2,30.07,SSW,204,1.0,1.0,75,0.00,,,0.00,VWS V14.01,2013-07-29 14:04:00,
2013-07-29 10:09:00,69.9,62.0,30.07,SW,228,0.0,1.0,76,0.00,,,0.00,VWS V14.01,2013-07-29 14:09:00,
2013-07-29 10:16:00,70.4,61.3,30.06,SW,221,2.0,3.0,73,0.00,,,0.00,VWS V14.01,2013-07-29 14:16:00,
2013-07-29 10:21:00,70.7,61.6,30.07,SSW,202,1.0,5.0,73,0.00,,,0.00,VWS V14.01,2013-07-29 14:21:00,
2013-07-29 10:26:00,70.9,62.2,30.07,SW,219,7.0,7.0,74,0.00,,,0.00,VWS V14.01,2013-07-29 14:26:00,
2013-07-29 10:32:00,71.2,62.1,30.06,WSW,237,1.0,3.0,73,0.00,,,0.00,VWS V14.01,2013-07-29 14:32:00,
2013-07-29 10:37:00,71.5,62.4,30.07,SW,225,8.0,8.0,73,0.00,,,0.00,VWS V14.01,2013-07-29 14:37:00,
2013-07-29 10:42:00,71.8,62.3,30.07,SW,220,2.0,3.0,72,0.00,,,0.00,VWS V14.01,2013-07-29 14:42:00,
2013-07-29 10:48:00,72.0,62.9,30.07,SW,222,2.0,3.0,73,0.00,,,0.00,VWS V14.01,2013-07-29 14:48:00,
2013-07-29 10:53:00,72.2,63.5,30.07,SW,220,5.0,6.0,74,0.00,,,0.00,VWS V14.01,2013-07-29 14:53:00,
2013-07-29 10:59:00,72.6,63.5,30.07,SW,229,5.0,5.0,73,0.00,,,0.00,VWS V14.01,2013-07-29 14:59:00,
2013-07-29 11:04:00,72.8,63.3,30.07,SW,219,1.0,2.0,72,0.00,,,0.00,VWS V14.01,2013-07-29 15:04:00,
2013-07-29 11:09:00,73.1,63.2,30.07,SSW,196,1.0,5.0,71,0.00,,,0.00,VWS V14.01,2013-07-29 15:09:00,
2013-07-29 11:14:00,73.5,63.1,30.07,SW,223,2.0,4.0,70,0.00,,,0.00,VWS V14.01,2013-07-29 15:14:00,
2013-07-29 11:20:00,73.7,63.3,30.07,WSW,246,1.0,3.0,70,0.00,,,0.00,VWS V14.01,2013-07-29 15:20:00,
2013-07-29 11:25:00,74.1,62.5,30.07,West,270,8.0,11.0,67,0.00,,,0.00,VWS V14.01,2013-07-29 15:25:00,
2013-07-29 11:30:00,74.1,62.9,30.07,SSW,208,3.0,5.0,68,0.00,,,0.00,VWS V14.01,2013-07-29 15:30:00,
2013-07-29 11:36:00,74.2,63.4,30.07,SW,219,1.0,3.0,69,0.00,,,0.00,VWS V14.01,2013-07-29 15:36:00,
2013-07-29 11:41:00,74.6,62.9,30.07,SW,226,1.0,5.0,67,0.00,,,0.00,VWS V14.01,2013-07-29 15:41:00,
2013-07-29 11:46:00,74.8,62.7,30.07,SSW,213,5.0,5.0,66,0.00,,,0.00,VWS V14.01,2013-07-29 15:46:00,
2013-07-29 11:53:00,74.7,63.0,30.07,SW,221,3.0,4.0,67,0.00,,,0.00,VWS V14.01,2013-07-29 15:53:00,
2013-07-29 11:58:00,75.1,63.0,30.07,SW,236,2.0,2.0,66,0.00,,,0.00,VWS V14.01,2013-07-29 15:58:00,
2013-07-29 12:04:00,75.1,63.0,30.07,West,268,6.0,9.0,66,0.00,,,0.00,VWS V14.01,2013-07-29 16:04:00,
2013-07-29 12:09:00,75.2,63.9,30.07,SW,223,0.0,1.0,68,0.00,,,0.00,VWS V14.01,2013-07-29 16:09:00,
2013-07-29 12:14:00,75.5,63.8,30.07,WSW,246,3.0,6.0,67,0.00,,,0.00,VWS V14.01,2013-07-29 16:14:00,
2013-07-29 12:19:00,75.9,64.2,30.07,SSW,205,5.0,5.0,67,0.00,,,0.00,VWS V14.01,2013-07-29 16:19:00,
2013-07-29 12:26:00,75.6,63.0,30.06,SSW,198,3.0,6.0,65,0.00,,,0.00,VWS V14.01,2013-07-29 16:26:00,
2013-07-29 12:31:00,75.4,62.8,30.07,SSW,210,3.0,6.0,65,0.00,,,0.00,VWS V14.01,2013-07-29 16:31:00,
2013-07-29 12:36:00,75.4,62.8,30.07,SW,223,0.0,1.0,65,0.00,,,0.00,VWS V14.01,2013-07-29 16:36:00,
2013-07-29 12:41:00,76.0,62.0,30.06,SSW,211,0.0,1.0,62,0.00,,,0.00,VWS V14.01,2013-07-29 16:41:00,
2013-07-29 12:46:00,76.4,64.6,30.06,SW,219,1.0,3.0,67,0.00,,,0.00,VWS V14.01,2013-07-29 16:46:00,
2013-07-29 12:53:00,76.6,62.6,30.06,SW,219,2.0,5.0,62,0.00,,,0.00,VWS V14.01,2013-07-29 16:53:00,
2013-07-29 12:58:00,76.5,61.6,30.06,SW,215,2.0,2.0,60,0.00,,,0.00,VWS V14.01,2013-07-29 16:58:00,
2013-07-29 13:03:00,75.9,61.5,30.06,SSW,209,1.0,1.0,61,0.00,,,0.00,VWS V14.01,2013-07-29 17:03:00,
2013-07-29 13:08:00,76.2,61.3,30.07,SSW,200,3.0,6.0,60,0.00,,,0.00,VWS V14.01,2013-07-29 17:08:00,
2013-07-29 13:13:00,76.6,64.0,30.06,SW,222,1.0,2.0,65,0.00,,,0.00,VWS V14.01,2013-07-29 17:13:00,
2013-07-29 13:19:00,76.8,62.3,30.07,SW,234,1.0,2.0,61,0.00,,,0.00,VWS V14.01,2013-07-29 17:19:00,
2013-07-29 13:25:00,76.9,62.4,30.06,SW,235,0.0,1.0,61,0.00,,,0.00,VWS V14.01,2013-07-29 17:25:00,
2013-07-29 13:30:00,77.5,62.5,30.06,SW,230,2.0,3.0,60,0.00,,,0.00,VWS V14.01,2013-07-29 17:30:00,
2013-07-29 13:35:00,78.0,62.5,30.07,SW,229,1.0,2.0,59,0.00,,,0.00,VWS V14.01,2013-07-29 17:35:00,
2013-07-29 13:40:00,78.4,62.4,30.06,SSW,213,7.0,11.0,58,0.00,,,0.00,VWS V14.01,2013-07-29 17:40:00,
2013-07-29 13:45:00,78.0,63.0,30.06,WSW,246,2.0,2.0,60,0.00,,,0.00,VWS V14.01,2013-07-29 17:45:00,
2013-07-29 13:50:00,78.5,62.5,30.06,WSW,250,1.0,3.0,58,0.00,,,0.00,VWS V14.01,2013-07-29 17:50:00,
2013-07-29 13:55:00,79.1,62.1,30.06,WSW,249,0.0,1.0,56,0.00,,,0.00,VWS V14.01,2013-07-29 17:55:00,
2013-07-29 14:01:00,78.9,61.9,30.06,SW,225,4.0,5.0,56,0.00,,,0.00,VWS V14.01,2013-07-29 18:01:00,
2013-07-29 14:06:00,78.6,62.1,30.07,SSW,207,2.0,3.0,57,0.00,,,0.00,VWS V14.01,2013-07-29 18:06:00,
2013-07-29 14:11:00,78.6,62.6,30.07,SSW,207,0.0,1.0,58,0.00,,,0.00,VWS V14.01,2013-07-29 18:11:00,
2013-07-29 14:16:00,78.7,62.2,30.07,SW,234,0.0,2.0,57,0.00,,,0.00,VWS V14.01,2013-07-29 18:16:00,
2013-07-29 14:21:00,78.9,61.9,30.06,WSW,238,3.0,3.0,56,0.00,,,0.00,VWS V14.01,2013-07-29 18:21:00,
2013-07-29 14:26:00,78.7,61.7,30.06,SSW,207,2.0,3.0,56,0.00,,,0.00,VWS V14.01,2013-07-29 18:26:00,
2013-07-29 14:32:00,78.7,61.7,30.05,SW,233,2.0,6.0,56,0.00,,,0.00,VWS V14.01,2013-07-29 18:32:00,
2013-07-29 14:37:00,78.7,62.2,30.05,SW,217,4.0,4.0,57,0.00,,,0.00,VWS V14.01,2013-07-29 18:37:00,
2013-07-29 14:42:00,78.7,62.2,30.05,SW,215,2.0,4.0,57,0.00,,,0.00,VWS V14.01,2013-07-29 18:42:00,
2013-07-29 14:47:00,78.9,62.9,30.05,SSW,213,2.0,2.0,58,0.00,,,0.00,VWS V14.01,2013-07-29 18:47:00,
2013-07-29 14:53:00,78.9,62.4,30.05,WSW,238,7.0,9.0,57,0.00,,,0.00,VWS V14.01,2013-07-29 18:53:00,
2013-07-29 14:58:00,78.9,62.4,30.05,SSW,196,2.0,6.0,57,0.00,,,0.00,VWS V14.01,2013-07-29 18:58:00,
2013-07-29 15:03:00,78.7,61.7,30.05,SSW,194,1.0,3.0,56,0.00,,,0.00,VWS V14.01,2013-07-29 19:03:00,
2013-07-29 15:08:00,78.9,63.4,30.05,SSW,201,0.0,1.0,59,0.00,,,0.00,VWS V14.01,2013-07-29 19:08:00,
2013-07-29 15:16:00,80.3,64.7,30.05,WNW,284,3.0,3.0,59,0.00,,,0.00,VWS V14.01,2013-07-29 19:16:00,
2013-07-29 15:21:00,80.9,63.8,30.04,SW,225,6.0,6.0,56,0.00,,,0.00,VWS V14.01,2013-07-29 19:21:00,
2013-07-29 15:26:00,79.9,62.3,30.04,SW,219,0.0,1.0,55,0.00,,,0.00,VWS V14.01,2013-07-29 19:26:00,
2013-07-29 15:32:00,79.2,63.2,30.04,SSW,207,6.0,6.0,58,0.00,,,0.00,VWS V14.01,2013-07-29 19:32:00,
2013-07-29 15:37:00,79.9,62.8,30.04,SW,216,4.0,4.0,56,0.00,,,0.00,VWS V14.01,2013-07-29 19:37:00,
2013-07-29 15:42:00,80.2,64.1,30.04,WSW,249,0.0,2.0,58,0.00,,,0.00,VWS V14.01,2013-07-29 19:42:00,
2013-07-29 15:48:00,80.6,63.0,30.03,WSW,249,1.0,2.0,55,0.00,,,0.00,VWS V14.01,2013-07-29 19:48:00,
2013-07-29 15:53:00,80.3,63.2,30.03,SW,217,2.0,6.0,56,0.00,,,0.00,VWS V14.01,2013-07-29 19:53:00,
2013-07-29 15:58:00,79.6,64.0,30.03,SSW,200,3.0,3.0,59,0.00,,,0.00,VWS V14.01,2013-07-29 19:58:00,
2013-07-29 16:03:00,79.8,63.2,30.03,WSW,239,3.0,3.0,57,0.00,,,0.00,VWS V14.01,2013-07-29 20:03:00,
2013-07-29 16:10:00,79.8,62.7,30.04,WSW,244,3.0,4.0,56,0.00,,,0.00,VWS V14.01,2013-07-29 20:10:00,
2013-07-29 16:15:00,79.6,63.5,30.04,WSW,255,2.0,3.0,58,0.00,,,0.00,VWS V14.01,2013-07-29 20:15:00,
2013-07-29 16:20:00,79.6,63.0,30.03,SW,232,1.0,2.0,57,0.00,,,0.00,VWS V14.01,2013-07-29 20:20:00,
2013-07-29 16:25:00,79.6,63.5,30.04,SW,227,4.0,4.0,58,0.00,,,0.00,VWS V14.01,2013-07-29 20:25:00,
2013-07-29 16:30:00,79.1,63.6,30.03,SW,229,1.0,3.0,59,0.00,,,0.00,VWS V14.01,2013-07-29 20:30:00,
2013-07-29 16:35:00,79.2,63.7,30.03,SW,227,2.0,4.0,59,0.00,,,0.00,VWS V14.01,2013-07-29 20:35:00,
2013-07-29 16:40:00,79.2,62.7,30.03,SW,225,0.0,1.0,57,0.00,,,0.00,VWS V14.01,2013-07-29 20:40:00,
2013-07-29 16:46:00,78.9,62.9,30.03,SSW,206,1.0,5.0,58,0.00,,,0.00,VWS V14.01,2013-07-29 20:46:00,
2013-07-29 16:52:00,79.2,64.6,30.03,SW,230,4.0,4.0,61,0.00,,,0.00,VWS V14.01,2013-07-29 20:52:00,
2013-07-29 16:58:00,79.8,63.2,30.03,SSW,203,6.0,6.0,57,0.00,,,0.00,VWS V14.01,2013-07-29 20:58:00,
2013-07-29 17:04:00,79.4,63.8,30.03,SW,220,2.0,2.0,59,0.00,,,0.00,VWS V14.01,2013-07-29 21:04:00,
2013-07-29 17:10:00,79.0,64.4,30.03,SSW,205,6.0,9.0,61,0.00,,,0.00,VWS V14.01,2013-07-29 21:10:00,
2013-07-29 17:15:00,78.8,62.8,30.03,WSW,242,1.0,2.0,58,0.00,,,0.00,VWS V14.01,2013-07-29 21:15:00,
2013-07-29 17:20:00,78.7,63.7,30.03,SW,223,3.0,5.0,60,0.00,,,0.00,VWS V14.01,2013-07-29 21:20:00,
2013-07-29 17:25:00,78.2,63.7,30.03,SW,214,0.0,0.0,61,0.00,,,0.00,VWS V14.01,2013-07-29 21:25:00,
2013-07-29 17:31:00,78.0,63.9,30.03,SW,214,1.0,1.0,62,0.00,,,0.00,VWS V14.01,2013-07-29 21:31:00,
2013-07-29 17:36:00,78.1,64.5,30.03,SW,219,1.0,2.0,63,0.00,,,0.00,VWS V14.01,2013-07-29 21:36:00,
2013-07-29 17:41:00,78.1,63.1,30.03,SW,226,6.0,9.0,60,0.00,,,0.00,VWS V14.01,2013-07-29 21:41:00,
2013-07-29 17:46:00,78.2,64.6,30.03,SSW,199,2.0,4.0,63,0.00,,,0.00,VWS V14.01,2013-07-29 21:46:00,
2013-07-29 17:51:00,78.1,64.5,30.03,SSW,206,1.0,1.0,63,0.00,,,0.00,VWS V14.01,2013-07-29 21:51:00,
2013-07-29 17:58:00,78.5,64.4,30.03,SSW,208,2.0,5.0,62,0.00,,,0.00,VWS V14.01,2013-07-29 21:58:00,
2013-07-29 18:03:00,78.9,63.8,30.03,SSW,209,0.0,1.0,60,0.00,,,0.00,VWS V14.01,2013-07-29 22:03:00,
2013-07-29 18:08:00,79.2,63.7,30.03,SW,214,2.0,6.0,59,0.00,,,0.00,VWS V14.01,2013-07-29 22:08:00,
2013-07-29 18:14:00,78.9,64.3,30.04,SW,222,3.0,4.0,61,0.00,,,0.00,VWS V14.01,2013-07-29 22:14:00,
2013-07-29 18:20:00,79.1,64.0,30.04,SW,221,7.0,7.0,60,0.00,,,0.00,VWS V14.01,2013-07-29 22:20:00,
2013-07-29 18:25:00,79.0,63.9,30.03,SW,219,2.0,4.0,60,0.00,,,0.00,VWS V14.01,2013-07-29 22:25:00,
2013-07-29 18:30:00,79.1,64.0,30.03,SW,221,0.0,0.0,60,0.00,,,0.00,VWS V14.01,2013-07-29 22:30:00,
2013-07-29 18:35:00,79.3,64.2,30.03,SW,222,1.0,2.0,60,0.00,,,0.00,VWS V14.01,2013-07-29 22:35:00,
2013-07-29 18:40:00,79.0,63.5,30.03,SW,226,2.0,4.0,59,0.00,,,0.00,VWS V14.01,2013-07-29 22:40:00,
2013-07-29 18:45:00,78.7,64.1,30.04,SW,225,1.0,2.0,61,0.00,,,0.00,VWS V14.01,2013-07-29 22:45:00,
2013-07-29 18:50:00,78.7,63.7,30.04,SW,229,4.0,4.0,60,0.00,,,0.00,VWS V14.01,2013-07-29 22:50:00,
2013-07-29 18:55:00,78.7,63.7,30.04,SW,220,2.0,3.0,60,0.00,,,0.00,VWS V14.01,2013-07-29 22:55:00,
2013-07-29 19:01:00,78.0,63.0,30.04,SSW,211,1.0,1.0,60,0.00,,,0.00,VWS V14.01,2013-07-29 23:01:00,
2013-07-29 19:06:00,77.4,63.4,30.04,SSW,211,0.0,1.0,62,0.00,,,0.00,VWS V14.01,2013-07-29 23:06:00,
2013-07-29 19:11:00,77.3,63.3,30.04,SSW,211,0.0,1.0,62,0.00,,,0.00,VWS V14.01,2013-07-29 23:11:00,
2013-07-29 19:16:00,77.3,64.2,30.04,SSW,212,0.0,1.0,64,0.00,,,0.00,VWS V14.01,2013-07-29 23:16:00,
2013-07-29 19:22:00,76.9,63.8,30.04,SW,214,0.0,0.0,64,0.00,,,0.00,VWS V14.01,2013-07-29 23:22:00,
2013-07-29 19:30:00,76.7,64.9,30.04,SW,218,1.0,1.0,67,0.00,,,0.00,VWS V14.01,2013-07-29 23:30:00,
2013-07-29 19:35:00,76.7,64.9,30.05,SW,217,0.0,0.0,67,0.00,,,0.00,VWS V14.01,2013-07-29 23:35:00,
2013-07-29 19:40:00,76.6,64.0,30.05,SW,218,2.0,2.0,65,0.00,,,0.00,VWS V14.01,2013-07-29 23:40:00,
2013-07-29 19:46:00,76.4,64.6,30.05,SW,218,0.0,1.0,67,0.00,,,0.00,VWS V14.01,2013-07-29 23:46:00,
2013-07-29 19:51:00,76.2,64.4,30.05,SW,218,1.0,1.0,67,0.00,,,0.00,VWS V14.01,2013-07-29 23:51:00,
2013-07-29 19:56:00,76.0,64.7,30.05,SW,218,0.0,0.0,68,0.00,,,0.00,VWS V14.01,2013-07-29 23:56:00,
2013-07-29 20:01:00,75.7,64.8,30.05,SW,218,0.0,0.0,69,0.00,,,0.00,VWS V14.01,2013-07-30 00:01:00,
2013-07-29 20:07:00,75.5,65.0,30.05,SW,218,0.0,0.0,70,0.00,,,0.00,VWS V14.01,2013-07-30 00:07:00,
2013-07-29 20:12:00,75.2,64.8,30.05,SW,218,0.0,0.0,70,0.00,,,0.00,VWS V14.01,2013-07-30 00:12:00,
2013-07-29 20:17:00,74.9,64.9,30.06,SW,218,0.0,0.0,71,0.00,,,0.00,VWS V14.01,2013-07-30 00:17:00,
2013-07-29 20:23:00,74.4,64.8,30.06,SW,218,0.0,0.0,72,0.00,,,0.00,VWS V14.01,2013-07-30 00:23:00,
2013-07-29 20:28:00,74.0,64.8,30.06,SW,218,0.0,0.0,73,0.00,,,0.00,VWS V14.01,2013-07-30 00:28:00,
2013-07-29 20:33:00,73.5,64.7,30.06,SW,218,0.0,0.0,74,0.00,,,0.00,VWS V14.01,2013-07-30 00:33:00,
2013-07-29 20:38:00,73.0,64.2,30.06,SW,218,0.0,0.0,74,0.00,,,0.00,VWS V14.01,2013-07-30 00:38:00,
2013-07-29 20:43:00,72.5,64.1,30.06,SW,218,0.0,0.0,75,0.00,,,0.00,VWS V14.01,2013-07-30 00:43:00,
2013-07-29 20:48:00,72.1,64.1,30.06,SW,218,0.0,0.0,76,0.00,,,0.00,VWS V14.01,2013-07-30 00:48:00,
2013-07-29 20:53:00,71.7,64.1,30.06,SW,218,0.0,0.0,77,0.00,,,0.00,VWS V14.01,2013-07-30 00:53:00,
2013-07-29 21:00:00,71.3,64.1,30.05,SW,218,0.0,0.0,78,0.00,,,0.00,VWS V14.01,2013-07-30 01:00:00,
2013-07-29 21:05:00,70.9,64.1,30.05,SW,218,0.0,0.0,79,0.00,,,0.00,VWS V14.01,2013-07-30 01:05:00,
2013-07-29 21:10:00,70.6,64.1,30.05,SW,218,0.0,0.0,80,0.00,,,0.00,VWS V14.01,2013-07-30 01:10:00,
2013-07-29 21:15:00,70.3,63.8,30.05,SW,218,0.0,0.0,80,0.00,,,0.00,VWS V14.01,2013-07-30 01:15:00,
2013-07-29 21:21:00,69.9,63.8,30.05,SW,218,0.0,0.0,81,0.00,,,0.00,VWS V14.01,2013-07-30 01:21:00,
2013-07-29 21:26:00,69.7,64.0,30.05,SW,218,0.0,0.0,82,0.00,,,0.00,VWS V14.01,2013-07-30 01:26:00,
2013-07-29 21:31:00,69.5,64.1,30.06,SW,218,0.0,0.0,83,0.00,,,0.00,VWS V14.01,2013-07-30 01:31:00,
2013-07-29 21:36:00,69.3,63.9,30.06,SW,218,0.0,0.0,83,0.00,,,0.00,VWS V14.01,2013-07-30 01:36:00,
2013-07-29 21:41:00,69.1,64.1,30.06,SW,218,0.0,0.0,84,0.00,,,0.00,VWS V14.01,2013-07-30 01:41:00,
2013-07-29 21:46:00,68.9,63.9,30.06,SW,218,0.0,0.0,84,0.00,,,0.00,VWS V14.01,2013-07-30 01:46:00,
2013-07-29 21:51:00,68.7,64.0,30.07,SW,218,0.0,0.0,85,0.00,,,0.00,VWS V14.01,2013-07-30 01:51:00,
2013-07-29 21:57:00,68.5,63.8,30.07,SW,218,0.0,0.0,85,0.00,,,0.00,VWS V14.01,2013-07-30 01:57:00,
2013-07-29 22:02:00,68.3,63.6,30.07,SW,218,0.0,0.0,85,0.00,,,0.00,VWS V14.01,2013-07-30 02:02:00,
2013-07-29 22:07:00,68.1,63.8,30.07,SW,218,0.0,0.0,86,0.00,,,0.00,VWS V14.01,2013-07-30 02:07:00,
2013-07-29 22:12:00,67.9,63.9,30.07,SW,218,0.0,0.0,87,0.00,,,0.00,VWS V14.01,2013-07-30 02:12:00,
2013-07-29 22:18:00,67.7,63.4,30.07,SW,218,0.0,0.0,86,0.00,,,0.00,VWS V14.01,2013-07-30 02:18:00,
2013-07-29 22:23:00,67.6,63.6,30.07,SW,218,0.0,0.0,87,0.00,,,0.00,VWS V14.01,2013-07-30 02:23:00,
2013-07-29 22:28:00,67.4,63.4,30.07,SW,218,0.0,0.0,87,0.00,,,0.00,VWS V14.01,2013-07-30 02:28:00,
2013-07-29 22:33:00,67.3,63.6,30.07,SW,218,0.0,0.0,88,0.00,,,0.00,VWS V14.01,2013-07-30 02:33:00,
2013-07-29 22:40:00,67.1,63.1,30.07,SW,218,0.0,0.0,87,0.00,,,0.00,VWS V14.01,2013-07-30 02:40:00,
2013-07-29 22:45:00,67.1,63.4,30.07,SW,218,0.0,0.0,88,0.00,,,0.00,VWS V14.01,2013-07-30 02:45:00,
2013-07-29 22:50:00,66.9,62.9,30.07,SW,218,0.0,0.0,87,0.00,,,0.00,VWS V14.01,2013-07-30 02:50:00,
2013-07-29 22:55:00,66.8,62.8,30.07,SW,218,0.0,0.0,87,0.00,,,0.00,VWS V14.01,2013-07-30 02:55:00,
2013-07-29 23:00:00,66.6,62.9,30.07,SW,218,0.0,0.0,88,0.00,,,0.00,VWS V14.01,2013-07-30 03:00:00,
2013-07-29 23:06:00,66.5,62.8,30.07,SW,218,0.0,0.0,88,0.00,,,0.00,VWS V14.01,2013-07-30 03:06:00,
2013-07-29 23:11:00,66.5,62.8,30.07,SW,218,0.0,0.0,88,0.00,,,0.00,VWS V14.01,2013-07-30 03:11:00,
2013-07-29 23:17:00,66.4,62.7,30.08,SW,218,0.0,0.0,88,0.00,,,0.00,VWS V14.01,2013-07-30 03:17:00,
2013-07-29 23:22:00,66.4,63.1,30.07,SW,218,0.0,0.0,89,0.00,,,0.00,VWS V14.01,2013-07-30 03:22:00,
2013-07-29 23:28:00,66.3,63.0,30.07,SW,218,0.0,0.0,89,0.00,,,0.00,VWS V14.01,2013-07-30 03:28:00,
2013-07-29 23:33:00,66.3,63.0,30.07,SW,218,0.0,0.0,89,0.00,,,0.00,VWS V14.01,2013-07-30 03:33:00,
2013-07-29 23:38:00,66.2,62.9,30.07,SW,218,0.0,0.0,89,0.00,,,0.00,VWS V14.01,2013-07-30 03:38:00,
2013-07-29 23:45:00,66.1,62.8,30.07,SW,218,0.0,0.0,89,0.00,,,0.00,VWS V14.01,2013-07-30 03:45:00,
2013-07-29 23:50:00,66.0,62.7,30.07,SW,218,0.0,0.0,89,0.00,,,0.00,VWS V14.01,2013-07-30 03:50:00,
2013-07-29 23:55:00,65.9,62.6,30.07,SW,218,0.0,0.0,89,0.00,,,0.00,VWS V14.01,2013-07-30 03:55:00,